createdAt,value
2019-03-25T00:00:03.583Z,78
2019-03-25T00:01:02.904Z,78
2019-03-25T00:02:03.778Z,78
2019-03-25T00:03:02.963Z,78
2019-03-25T00:04:03.961Z,78
2019-03-25T00:05:03.063Z,78
2019-03-25T00:06:03.066Z,78
2019-03-25T00:07:03.853Z,78
2019-03-25T00:08:03.074Z,78
2019-03-25T00:09:05.985Z,78
2019-03-25T00:10:04.030Z,78
2019-03-25T00:11:03.822Z,78
2019-03-25T00:12:02.950Z,78
2019-03-25T00:13:02.907Z,78
2019-03-25T00:14:03.535Z,78
2019-03-25T00:15:03.213Z,78
2019-03-25T00:16:02.750Z,78
2019-03-25T00:17:02.792Z,78
2019-03-25T00:18:02.820Z,78
2019-03-25T00:19:03.720Z,78
2019-03-25T00:20:03.677Z,78
2019-03-25T00:21:03.824Z,78
2019-03-25T00:22:03.482Z,79
2019-03-25T00:23:03.666Z,79
2019-03-25T00:24:03.780Z,79
2019-03-25T00:25:03.728Z,79
2019-03-25T00:26:03.626Z,79
2019-03-25T00:27:03.646Z,79
2019-03-25T00:28:03.375Z,79
2019-03-25T00:29:03.732Z,79
2019-03-25T00:30:03.717Z,79
2019-03-25T00:31:03.931Z,79
2019-03-25T00:32:03.712Z,79
2019-03-25T00:33:03.961Z,79
2019-03-25T00:34:03.677Z,79
2019-03-25T00:35:03.587Z,79
2019-03-25T00:36:04.045Z,78
2019-03-25T00:37:03.533Z,79
2019-03-25T00:38:03.633Z,79
2019-03-25T00:39:03.620Z,79
2019-03-25T00:40:03.016Z,79
2019-03-25T00:41:03.534Z,79
2019-03-25T00:42:03.427Z,78
2019-03-25T00:43:03.796Z,79
2019-03-25T00:44:03.826Z,79
2019-03-25T00:45:03.480Z,79
2019-03-25T00:46:03.664Z,79
2019-03-25T00:47:03.405Z,79
2019-03-25T00:48:03.622Z,79
2019-03-25T00:49:03.394Z,79
2019-03-25T00:50:03.439Z,79
2019-03-25T00:51:03.596Z,79
2019-03-25T00:52:03.645Z,79
2019-03-25T00:53:03.619Z,78
2019-03-25T00:54:03.446Z,78
2019-03-25T00:55:03.753Z,78
2019-03-25T00:56:03.687Z,79
2019-03-25T00:57:02.899Z,78
2019-03-25T00:58:03.249Z,78
2019-03-25T00:59:03.139Z,78
2019-03-25T01:00:03.650Z,78
2019-03-25T01:01:03.377Z,78
2019-03-25T01:02:03.490Z,78
2019-03-25T01:03:03.122Z,78
2019-03-25T01:04:03.362Z,78
2019-03-25T01:05:03.269Z,78
2019-03-25T01:06:03.035Z,78
2019-03-25T01:07:03.369Z,78
2019-03-25T01:08:03.400Z,78
2019-03-25T01:09:03.024Z,78
2019-03-25T01:10:03.344Z,78
2019-03-25T01:11:03.193Z,78
2019-03-25T01:12:03.490Z,78
2019-03-25T01:13:03.014Z,78
2019-03-25T01:14:03.010Z,78
2019-03-25T01:15:03.371Z,78
2019-03-25T01:16:03.019Z,78
2019-03-25T01:17:03.344Z,78
2019-03-25T01:18:03.120Z,78
2019-03-25T01:19:03.206Z,78
2019-03-25T01:20:03.404Z,78
2019-03-25T01:21:03.007Z,78
2019-03-25T01:22:03.013Z,78
2019-03-25T01:23:02.972Z,78
2019-03-25T01:24:03.140Z,78
2019-03-25T01:25:03.053Z,78
2019-03-25T01:26:03.072Z,78
2019-03-25T01:27:03.764Z,78
2019-03-25T01:28:02.638Z,78
2019-03-25T01:29:04.045Z,78
2019-03-25T01:30:02.992Z,78
2019-03-25T01:31:03.172Z,78
2019-03-25T01:32:03.019Z,79
2019-03-25T01:33:03.042Z,79
2019-03-25T01:34:03.000Z,79
2019-03-25T01:35:03.085Z,79
2019-03-25T01:36:03.786Z,79
2019-03-25T01:37:03.704Z,79
2019-03-25T01:38:03.546Z,79
2019-03-25T01:39:02.741Z,79
2019-03-25T01:40:03.793Z,79
2019-03-25T01:41:02.908Z,79
2019-03-25T01:42:03.997Z,79
2019-03-25T01:43:03.673Z,79
2019-03-25T01:44:03.937Z,79
2019-03-25T01:45:03.676Z,79
2019-03-25T01:46:03.614Z,79
2019-03-25T01:47:03.352Z,79
2019-03-25T01:48:03.732Z,79
2019-03-25T01:49:03.568Z,79
2019-03-25T01:50:03.942Z,79
2019-03-25T01:51:03.484Z,79
2019-03-25T01:52:02.987Z,78
2019-03-25T01:53:04.022Z,79
2019-03-25T01:54:03.639Z,79
2019-03-25T01:55:14.006Z,79
2019-03-25T01:56:03.027Z,78
2019-03-25T01:57:03.871Z,78
2019-03-25T01:58:03.832Z,78
2019-03-25T01:59:03.831Z,78
2019-03-25T02:00:03.765Z,78
2019-03-25T02:01:03.741Z,78
2019-03-25T02:02:03.641Z,78
2019-03-25T02:03:02.870Z,78
2019-03-25T02:04:03.694Z,78
2019-03-25T02:05:02.998Z,78
2019-03-25T02:06:03.714Z,78
2019-03-25T02:07:03.078Z,78
2019-03-25T02:08:04.010Z,78
2019-03-25T02:09:03.714Z,78
2019-03-25T02:10:03.900Z,78
2019-03-25T02:11:03.595Z,78
2019-03-25T02:12:03.851Z,78
2019-03-25T02:13:03.672Z,78
2019-03-25T02:14:03.412Z,78
2019-03-25T02:15:02.988Z,78
2019-03-25T02:16:03.005Z,78
2019-03-25T02:17:02.620Z,78
2019-03-25T02:18:03.923Z,78
2019-03-25T02:19:03.742Z,78
2019-03-25T02:20:03.327Z,78
2019-03-25T02:21:03.662Z,78
2019-03-25T02:22:03.720Z,78
2019-03-25T02:23:04.062Z,78
2019-03-25T02:24:04.110Z,78
2019-03-25T02:25:03.402Z,78
2019-03-25T02:26:03.756Z,78
2019-03-25T02:27:02.822Z,78
2019-03-25T02:28:03.681Z,78
2019-03-25T02:29:03.804Z,78
2019-03-25T02:30:03.575Z,78
2019-03-25T02:31:02.955Z,78
2019-03-25T02:32:03.643Z,78
2019-03-25T02:33:03.067Z,78
2019-03-25T02:34:03.791Z,78
2019-03-25T02:35:03.811Z,78
2019-03-25T02:36:02.922Z,78
2019-03-25T02:37:03.445Z,78
2019-03-25T02:38:03.082Z,78
2019-03-25T02:39:03.538Z,78
2019-03-25T02:40:02.908Z,78
2019-03-25T02:41:03.956Z,78
2019-03-25T02:42:03.752Z,78
2019-03-25T02:43:03.655Z,78
2019-03-25T02:44:03.109Z,78
2019-03-25T02:45:03.735Z,78
2019-03-25T02:46:03.775Z,78
2019-03-25T02:47:03.875Z,78
2019-03-25T02:48:03.873Z,78
2019-03-25T02:49:03.480Z,78
2019-03-25T02:50:03.055Z,78
2019-03-25T02:51:02.934Z,78
2019-03-25T02:52:03.386Z,78
2019-03-25T02:53:03.761Z,78
2019-03-25T02:54:03.610Z,78
2019-03-25T02:55:03.707Z,78
2019-03-25T02:56:03.445Z,79
2019-03-25T02:57:03.499Z,79
2019-03-25T02:58:03.604Z,79
2019-03-25T02:59:03.502Z,79
2019-03-25T03:00:03.634Z,79
2019-03-25T03:01:03.642Z,79
2019-03-25T03:02:03.744Z,79
2019-03-25T03:03:03.483Z,79
2019-03-25T03:04:03.687Z,79
2019-03-25T03:05:03.464Z,79
2019-03-25T03:06:03.359Z,79
2019-03-25T03:07:03.515Z,79
2019-03-25T03:08:03.359Z,79
2019-03-25T03:09:03.435Z,79
2019-03-25T03:10:03.334Z,79
2019-03-25T03:11:03.485Z,79
2019-03-25T03:12:03.573Z,79
2019-03-25T03:13:03.232Z,79
2019-03-25T03:14:03.572Z,79
2019-03-25T03:15:05.438Z,79
2019-03-25T03:16:03.519Z,79
2019-03-25T03:17:03.448Z,79
2019-03-25T03:18:03.209Z,79
2019-03-25T03:19:03.279Z,79
2019-03-25T03:20:03.195Z,79
2019-03-25T03:21:03.365Z,79
2019-03-25T03:22:03.218Z,79
2019-03-25T03:23:03.327Z,79
2019-03-25T03:24:03.051Z,78
2019-03-25T03:25:03.523Z,78
2019-03-25T03:26:03.351Z,79
2019-03-25T03:27:03.266Z,79
2019-03-25T03:28:03.144Z,79
2019-03-25T03:29:03.436Z,79
2019-03-25T03:30:03.755Z,78
2019-03-25T03:31:03.313Z,78
2019-03-25T03:32:03.120Z,78
2019-03-25T03:33:03.323Z,78
2019-03-25T03:34:03.217Z,78
2019-03-25T03:35:03.805Z,78
2019-03-25T03:36:03.355Z,78
2019-03-25T03:37:02.965Z,78
2019-03-25T03:38:03.037Z,78
2019-03-25T03:39:02.974Z,78
2019-03-25T03:40:03.581Z,78
2019-03-25T03:41:03.226Z,78
2019-03-25T03:42:03.450Z,78
2019-03-25T03:43:03.182Z,78
2019-03-25T03:44:03.414Z,78
2019-03-25T03:45:03.128Z,78
2019-03-25T03:46:03.096Z,79
2019-03-25T03:47:03.014Z,79
2019-03-25T03:48:03.038Z,79
2019-03-25T03:49:03.383Z,79
2019-03-25T03:50:03.128Z,79
2019-03-25T03:51:02.935Z,79
2019-03-25T03:52:03.011Z,79
2019-03-25T03:53:03.339Z,79
2019-03-25T03:54:03.165Z,79
2019-03-25T03:55:03.239Z,79
2019-03-25T03:56:14.759Z,79
2019-03-25T03:57:03.207Z,79
2019-03-25T03:58:02.947Z,79
2019-03-25T03:59:03.155Z,79
2019-03-25T04:00:03.182Z,79
2019-03-25T04:01:03.684Z,79
2019-03-25T04:02:02.960Z,79
2019-03-25T04:03:03.752Z,79
2019-03-25T04:04:02.879Z,79
2019-03-25T04:05:03.934Z,79
2019-03-25T04:06:03.144Z,79
2019-03-25T04:07:03.841Z,79
2019-03-25T04:08:02.780Z,79
2019-03-25T04:09:03.652Z,79
2019-03-25T04:10:03.929Z,79
2019-03-25T04:11:03.658Z,79
2019-03-25T04:12:02.875Z,79
2019-03-25T04:13:03.087Z,79
2019-03-25T04:14:03.851Z,79
2019-03-25T04:15:04.821Z,79
2019-03-25T04:16:03.741Z,79
2019-03-25T04:17:02.981Z,79
2019-03-25T04:18:03.776Z,79
2019-03-25T04:19:03.706Z,79
2019-03-25T04:20:03.769Z,79
2019-03-25T04:21:03.780Z,79
2019-03-25T04:22:03.389Z,79
2019-03-25T04:23:03.767Z,79
2019-03-25T04:24:03.811Z,79
2019-03-25T04:25:03.855Z,79
2019-03-25T04:26:03.465Z,79
2019-03-25T04:27:03.277Z,79
2019-03-25T04:28:03.560Z,79
2019-03-25T04:29:03.488Z,79
2019-03-25T04:30:03.419Z,79
2019-03-25T04:31:03.235Z,79
2019-03-25T04:32:06.541Z,79
2019-03-25T04:33:03.324Z,79
2019-03-25T04:34:03.798Z,79
2019-03-25T04:35:03.509Z,78
2019-03-25T04:36:03.617Z,78
2019-03-25T04:37:03.884Z,78
2019-03-25T04:38:03.250Z,78
2019-03-25T04:39:02.883Z,78
2019-03-25T04:40:03.000Z,78
2019-03-25T04:41:02.971Z,78
2019-03-25T04:42:03.737Z,78
2019-03-25T04:43:03.966Z,78
2019-03-25T04:44:02.853Z,78
2019-03-25T04:45:03.688Z,78
2019-03-25T04:46:03.567Z,78
2019-03-25T04:47:02.907Z,78
2019-03-25T04:48:03.870Z,78
2019-03-25T04:49:02.832Z,78
2019-03-25T04:50:03.973Z,78
2019-03-25T04:51:02.806Z,78
2019-03-25T04:52:03.781Z,78
2019-03-25T04:53:03.587Z,78
2019-03-25T04:54:03.691Z,78
2019-03-25T04:55:03.875Z,78
2019-03-25T04:56:03.913Z,78
2019-03-25T04:57:03.681Z,78
2019-03-25T04:58:03.674Z,78
2019-03-25T04:59:05.789Z,78
2019-03-25T05:00:03.820Z,78
2019-03-25T05:01:03.763Z,78
2019-03-25T05:02:02.960Z,78
2019-03-25T05:03:02.862Z,78
2019-03-25T05:04:03.035Z,78
2019-03-25T05:05:02.864Z,78
2019-03-25T05:06:03.175Z,78
2019-03-25T05:07:03.594Z,78
2019-03-25T05:08:03.780Z,78
2019-03-25T05:09:03.883Z,78
2019-03-25T05:10:03.762Z,78
2019-03-25T05:11:04.105Z,78
2019-03-25T05:12:02.968Z,78
2019-03-25T05:13:03.771Z,78
2019-03-25T05:14:03.366Z,78
2019-03-25T05:15:02.897Z,78
2019-03-25T05:16:03.956Z,78
2019-03-25T05:17:03.898Z,78
2019-03-25T05:18:03.827Z,77
2019-03-25T05:19:03.011Z,77
2019-03-25T05:20:02.822Z,77
2019-03-25T05:21:02.704Z,77
2019-03-25T05:22:02.887Z,77
2019-03-25T05:23:02.872Z,77
2019-03-25T05:24:03.625Z,77
2019-03-25T05:25:03.796Z,77
2019-03-25T05:26:02.953Z,77
2019-03-25T05:27:03.769Z,77
2019-03-25T05:28:03.600Z,77
2019-03-25T05:29:03.833Z,77
2019-03-25T05:30:03.733Z,77
2019-03-25T05:31:03.489Z,77
2019-03-25T05:32:02.923Z,77
2019-03-25T05:33:03.708Z,77
2019-03-25T05:34:02.896Z,77
2019-03-25T05:35:03.025Z,77
2019-03-25T05:36:03.425Z,77
2019-03-25T05:37:03.332Z,77
2019-03-25T05:38:03.452Z,77
2019-03-25T05:39:03.588Z,77
2019-03-25T05:40:03.577Z,77
2019-03-25T05:41:03.561Z,77
2019-03-25T05:42:03.591Z,77
2019-03-25T05:43:03.631Z,77
2019-03-25T05:44:03.191Z,77
2019-03-25T05:45:03.197Z,77
2019-03-25T05:46:03.321Z,77
2019-03-25T05:47:03.196Z,77
2019-03-25T05:48:02.735Z,77
2019-03-25T05:49:03.402Z,77
2019-03-25T05:50:03.209Z,77
2019-03-25T05:51:03.086Z,77
2019-03-25T05:52:03.371Z,76
2019-03-25T05:53:02.991Z,76
2019-03-25T05:54:03.444Z,76
2019-03-25T05:55:03.128Z,76
2019-03-25T05:56:03.445Z,76
2019-03-25T05:57:03.358Z,77
2019-03-25T05:58:03.320Z,77
2019-03-25T05:59:03.121Z,77
2019-03-25T06:00:03.353Z,77
2019-03-25T06:01:03.398Z,77
2019-03-25T06:02:03.410Z,77
2019-03-25T06:03:02.921Z,77
2019-03-25T06:04:03.260Z,77
2019-03-25T06:05:03.304Z,76
2019-03-25T06:06:03.147Z,76
2019-03-25T06:07:03.368Z,76
2019-03-25T06:08:03.453Z,76
2019-03-25T06:09:03.314Z,76
2019-03-25T06:10:03.155Z,76
2019-03-25T06:11:03.201Z,76
2019-03-25T06:12:03.031Z,76
2019-03-25T06:13:02.962Z,76
2019-03-25T06:14:03.204Z,76
2019-03-25T06:15:03.108Z,76
2019-03-25T06:16:02.924Z,76
2019-03-25T06:17:03.152Z,76
2019-03-25T06:18:03.030Z,76
2019-03-25T06:19:02.921Z,76
2019-03-25T06:20:03.581Z,76
2019-03-25T06:21:03.102Z,76
2019-03-25T06:22:03.072Z,76
2019-03-25T06:23:02.907Z,76
2019-03-25T06:24:03.037Z,76
2019-03-25T06:25:03.731Z,75
2019-03-25T06:26:03.703Z,75
2019-03-25T06:27:14.810Z,75
2019-03-25T06:28:03.744Z,75
2019-03-25T06:29:03.606Z,75
2019-03-25T06:30:03.966Z,75
2019-03-25T06:31:03.817Z,74
2019-03-25T06:32:02.893Z,74
2019-03-25T06:33:13.071Z,74
2019-03-25T06:34:03.129Z,74
2019-03-25T06:35:03.047Z,74
2019-03-25T06:36:02.858Z,74
2019-03-25T06:37:03.005Z,74
2019-03-25T06:38:02.932Z,73
2019-03-25T06:39:03.053Z,73
2019-03-25T06:40:03.561Z,73
2019-03-25T06:41:02.947Z,73
2019-03-25T06:42:03.544Z,73
2019-03-25T06:43:03.373Z,72
2019-03-25T06:44:03.423Z,72
2019-03-25T06:45:02.766Z,72
2019-03-25T06:46:03.476Z,72
2019-03-25T06:47:03.674Z,71
2019-03-25T06:48:03.630Z,71
2019-03-25T06:49:03.686Z,71
2019-03-25T06:50:03.505Z,71
2019-03-25T06:51:03.715Z,71
2019-03-25T06:52:03.484Z,71
2019-03-25T06:53:03.519Z,71
2019-03-25T06:54:03.511Z,71
2019-03-25T06:55:03.398Z,71
2019-03-25T06:56:03.441Z,71
2019-03-25T06:57:03.453Z,71
2019-03-25T06:58:03.390Z,71
2019-03-25T06:59:03.464Z,71
2019-03-25T07:00:03.429Z,71
2019-03-25T07:01:03.479Z,70
2019-03-25T07:02:03.285Z,70
2019-03-25T07:03:03.183Z,70
2019-03-25T07:04:03.495Z,70
2019-03-25T07:05:03.612Z,70
2019-03-25T07:06:03.631Z,70
2019-03-25T07:07:03.243Z,69
2019-03-25T07:08:02.997Z,69
2019-03-25T07:09:03.390Z,68
2019-03-25T07:10:03.357Z,67
2019-03-25T07:11:03.144Z,67
2019-03-25T07:12:03.279Z,67
2019-03-25T07:13:03.246Z,67
2019-03-25T07:14:03.227Z,68
2019-03-25T07:15:03.463Z,68
2019-03-25T07:16:03.365Z,68
2019-03-25T07:17:03.402Z,69
2019-03-25T07:18:03.095Z,69
2019-03-25T07:19:03.645Z,69
2019-03-25T07:20:03.569Z,69
2019-03-25T07:21:02.998Z,69
2019-03-25T07:22:03.329Z,69
2019-03-25T07:23:03.500Z,69
2019-03-25T07:24:03.354Z,69
2019-03-25T07:25:03.251Z,69
2019-03-25T07:26:03.180Z,69
2019-03-25T07:27:03.210Z,69
2019-03-25T07:28:03.156Z,68
2019-03-25T07:29:03.071Z,68
2019-03-25T07:30:03.018Z,68
2019-03-25T07:31:03.136Z,67
2019-03-25T07:32:03.095Z,67
2019-03-25T07:33:03.666Z,67
2019-03-25T07:34:02.780Z,66
2019-03-25T07:35:03.084Z,66
2019-03-25T07:36:03.045Z,66
2019-03-25T07:37:03.931Z,66
2019-03-25T07:38:03.617Z,66
2019-03-25T07:39:03.790Z,67
2019-03-25T07:40:03.820Z,67
2019-03-25T07:41:03.657Z,67
2019-03-25T07:42:03.499Z,67
2019-03-25T07:43:03.874Z,67
2019-03-25T07:44:03.482Z,66
2019-03-25T07:45:03.346Z,66
2019-03-25T07:46:03.613Z,66
2019-03-25T07:47:03.825Z,66
2019-03-25T07:48:04.490Z,66
2019-03-25T07:49:03.657Z,66
2019-03-25T07:50:03.682Z,66
2019-03-25T07:51:02.970Z,66
2019-03-25T07:52:03.716Z,65
2019-03-25T07:53:03.631Z,65
2019-03-25T07:54:03.690Z,65
2019-03-25T07:55:03.140Z,65
2019-03-25T07:56:03.740Z,65
2019-03-25T07:57:03.662Z,64
2019-03-25T07:58:03.074Z,63
2019-03-25T07:59:03.637Z,63
2019-03-25T08:00:14.540Z,63
2019-03-25T08:01:03.818Z,63
2019-03-25T08:02:03.853Z,63
2019-03-25T08:03:02.809Z,63
2019-03-25T08:04:03.041Z,63
2019-03-25T08:05:03.755Z,63
2019-03-25T08:06:02.966Z,63
2019-03-25T08:07:02.993Z,63
2019-03-25T08:08:02.986Z,63
2019-03-25T08:09:04.415Z,63
2019-03-25T08:10:03.791Z,63
2019-03-25T08:11:03.835Z,63
2019-03-25T08:12:03.536Z,63
2019-03-25T08:13:04.057Z,63
2019-03-25T08:14:03.840Z,63
2019-03-25T08:15:03.743Z,63
2019-03-25T08:16:03.769Z,62
2019-03-25T08:17:03.654Z,62
2019-03-25T08:18:03.720Z,62
2019-03-25T08:19:03.747Z,62
2019-03-25T08:20:03.552Z,62
2019-03-25T08:21:03.646Z,62
2019-03-25T08:22:02.986Z,62
2019-03-25T08:23:03.769Z,62
2019-03-25T08:24:03.499Z,62
2019-03-25T08:25:03.495Z,62
2019-03-25T08:26:03.308Z,61
2019-03-25T08:27:03.552Z,61
2019-03-25T08:28:03.537Z,61
2019-03-25T08:29:03.869Z,61
2019-03-25T08:30:03.544Z,61
2019-03-25T08:31:03.631Z,62
2019-03-25T08:32:03.672Z,61
2019-03-25T08:33:03.487Z,61
2019-03-25T08:34:03.918Z,60
2019-03-25T08:35:03.770Z,60
2019-03-25T08:36:02.907Z,60
2019-03-25T08:37:04.708Z,60
2019-03-25T08:38:03.629Z,60
2019-03-25T08:39:03.581Z,59
2019-03-25T08:40:02.390Z,59
2019-03-25T08:41:03.541Z,59
2019-03-25T08:42:03.537Z,58
2019-03-25T08:43:03.393Z,58
2019-03-25T08:44:03.560Z,58
2019-03-25T08:45:04.001Z,57
2019-03-25T08:46:03.501Z,58
2019-03-25T08:47:03.446Z,58
2019-03-25T08:48:03.892Z,58
2019-03-25T08:49:03.712Z,57
2019-03-25T08:50:03.723Z,58
2019-03-25T08:51:03.580Z,58
2019-03-25T08:52:03.551Z,57
2019-03-25T08:53:02.786Z,57
2019-03-25T08:54:03.454Z,57
2019-03-25T08:55:03.547Z,55
2019-03-25T08:56:03.634Z,55
2019-03-25T08:57:03.150Z,55
2019-03-25T08:58:12.724Z,55
2019-03-25T08:59:03.728Z,56
2019-03-25T09:00:03.706Z,56
2019-03-25T09:01:03.452Z,56
2019-03-25T09:02:03.628Z,56
2019-03-25T09:03:03.567Z,56
2019-03-25T09:04:03.747Z,56
2019-03-25T09:05:03.804Z,56
2019-03-25T09:06:03.566Z,55
2019-03-25T09:07:03.596Z,55
2019-03-25T09:08:03.161Z,55
2019-03-25T09:09:03.317Z,55
2019-03-25T09:10:03.238Z,54
2019-03-25T09:11:03.416Z,54
2019-03-25T09:12:03.263Z,54
2019-03-25T09:13:03.304Z,54
2019-03-25T09:14:03.367Z,54
2019-03-25T09:15:03.369Z,54
2019-03-25T09:16:03.394Z,54
2019-03-25T09:17:03.593Z,53
2019-03-25T09:18:03.114Z,53
2019-03-25T09:19:03.519Z,52
2019-03-25T09:20:03.782Z,52
2019-03-25T09:21:03.453Z,53
2019-03-25T09:22:03.458Z,53
2019-03-25T09:23:03.390Z,52
2019-03-25T09:24:03.261Z,52
2019-03-25T09:25:03.517Z,50
2019-03-25T09:26:03.969Z,50
2019-03-25T09:27:03.394Z,51
2019-03-25T09:28:03.508Z,51
2019-03-25T09:29:03.524Z,51
2019-03-25T09:30:03.981Z,51
2019-03-25T09:31:03.726Z,51
2019-03-25T09:32:03.704Z,51
2019-03-25T09:33:03.682Z,51
2019-03-25T09:34:03.535Z,52
2019-03-25T09:35:03.556Z,51
2019-03-25T09:36:04.030Z,51
2019-03-25T09:37:03.600Z,51
2019-03-25T09:38:03.365Z,51
2019-03-25T09:39:03.478Z,51
2019-03-25T09:40:03.647Z,51
2019-03-25T09:41:03.561Z,51
2019-03-25T09:42:03.433Z,51
2019-03-25T09:43:03.610Z,51
2019-03-25T09:44:03.552Z,51
2019-03-25T09:45:03.568Z,51
2019-03-25T09:46:03.500Z,50
2019-03-25T09:47:03.709Z,50
2019-03-25T09:48:03.345Z,50
2019-03-25T09:49:03.276Z,50
2019-03-25T09:50:03.644Z,50
2019-03-25T09:51:03.750Z,50
2019-03-25T09:52:03.489Z,50
2019-03-25T09:53:03.401Z,50
2019-03-25T09:54:03.769Z,50
2019-03-25T09:55:04.012Z,49
2019-03-25T09:56:03.843Z,49
2019-03-25T09:57:03.461Z,49
2019-03-25T09:58:03.846Z,49
2019-03-25T09:59:03.580Z,49
2019-03-25T10:00:03.959Z,49
2019-03-25T10:01:03.550Z,49
2019-03-25T10:02:03.640Z,49
2019-03-25T10:03:03.592Z,49
2019-03-25T10:04:03.685Z,49
2019-03-25T10:05:03.689Z,49
2019-03-25T10:06:03.730Z,49
2019-03-25T10:07:03.582Z,49
2019-03-25T10:08:03.488Z,49
2019-03-25T10:09:03.786Z,49
2019-03-25T10:10:03.692Z,48
2019-03-25T10:11:03.497Z,47
2019-03-25T10:12:03.530Z,47
2019-03-25T10:13:03.446Z,48
2019-03-25T10:14:03.926Z,48
2019-03-25T10:15:03.998Z,48
2019-03-25T10:16:03.650Z,48
2019-03-25T10:17:03.488Z,47
2019-03-25T10:18:03.544Z,46
2019-03-25T10:19:03.469Z,46
2019-03-25T10:20:03.149Z,46
2019-03-25T10:21:03.280Z,46
2019-03-25T10:22:03.425Z,46
2019-03-25T10:23:03.229Z,46
2019-03-25T10:24:03.478Z,46
2019-03-25T10:25:03.264Z,46
2019-03-25T10:26:03.585Z,46
2019-03-25T10:27:03.266Z,46
2019-03-25T10:28:03.310Z,46
2019-03-25T10:29:03.514Z,46
2019-03-25T10:30:03.082Z,46
2019-03-25T10:31:03.637Z,46
2019-03-25T10:32:03.380Z,46
2019-03-25T10:33:03.212Z,46
2019-03-25T10:34:03.147Z,47
2019-03-25T10:35:03.303Z,47
2019-03-25T10:36:03.073Z,47
2019-03-25T10:37:03.125Z,47
2019-03-25T10:38:03.047Z,48
2019-03-25T10:39:03.398Z,48
2019-03-25T10:40:02.997Z,48
2019-03-25T10:41:03.084Z,48
2019-03-25T10:42:03.260Z,48
2019-03-25T10:43:02.766Z,48
2019-03-25T10:44:03.917Z,48
2019-03-25T10:45:03.066Z,48
2019-03-25T10:46:02.929Z,48
2019-03-25T10:47:03.845Z,48
2019-03-25T10:48:03.451Z,48
2019-03-25T10:49:03.581Z,48
2019-03-25T10:50:03.124Z,48
2019-03-25T10:51:03.746Z,48
2019-03-25T10:52:03.747Z,48
2019-03-25T10:53:04.095Z,48
2019-03-25T10:54:03.642Z,48
2019-03-25T10:55:03.686Z,48
2019-03-25T10:56:03.901Z,48
2019-03-25T10:57:02.805Z,48
2019-03-25T10:58:03.845Z,49
2019-03-25T10:59:02.920Z,49
2019-03-25T11:00:03.856Z,49
2019-03-25T11:01:03.612Z,49
2019-03-25T11:02:03.737Z,49
2019-03-25T11:03:03.821Z,49
2019-03-25T11:04:03.525Z,49
2019-03-25T11:05:03.503Z,49
2019-03-25T11:06:03.001Z,49
2019-03-25T11:07:04.077Z,49
2019-03-25T11:08:03.403Z,49
2019-03-25T11:09:03.880Z,50
2019-03-25T11:10:03.670Z,49
2019-03-25T11:11:03.760Z,50
2019-03-25T11:12:03.470Z,49
2019-03-25T11:13:03.247Z,49
2019-03-25T11:14:03.450Z,49
2019-03-25T11:15:03.020Z,49
2019-03-25T11:16:03.427Z,49
2019-03-25T11:17:03.360Z,49
2019-03-25T11:18:04.819Z,49
2019-03-25T11:19:03.107Z,49
2019-03-25T11:20:03.182Z,49
2019-03-25T11:21:03.531Z,49
2019-03-25T11:22:03.494Z,49
2019-03-25T11:23:03.390Z,49
2019-03-25T11:24:03.348Z,50
2019-03-25T11:25:03.276Z,50
2019-03-25T11:26:03.359Z,50
2019-03-25T11:27:03.145Z,50
2019-03-25T11:28:03.385Z,50
2019-03-25T11:29:09.086Z,50
2019-03-25T11:30:05.887Z,50
2019-03-25T11:31:03.266Z,50
2019-03-25T11:32:03.830Z,50
2019-03-25T11:33:03.041Z,50
2019-03-25T11:34:03.934Z,50
2019-03-25T11:35:03.213Z,50
2019-03-25T11:36:03.117Z,51
2019-03-25T11:37:02.948Z,51
2019-03-25T11:38:02.890Z,51
2019-03-25T11:39:02.977Z,52
2019-03-25T11:40:03.212Z,52
2019-03-25T11:41:02.969Z,52
2019-03-25T11:42:02.873Z,53
2019-03-25T11:43:03.709Z,53
2019-03-25T11:44:03.179Z,53
2019-03-25T11:45:02.875Z,53
2019-03-25T11:46:03.661Z,53
2019-03-25T11:47:03.536Z,53
2019-03-25T11:48:03.124Z,53
2019-03-25T11:49:03.722Z,52
2019-03-25T11:50:03.875Z,52
2019-03-25T11:51:02.867Z,52
2019-03-25T11:52:03.140Z,52
2019-03-25T11:53:02.681Z,52
2019-03-25T11:54:03.819Z,52
2019-03-25T11:55:03.080Z,52
2019-03-25T11:56:03.682Z,52
2019-03-25T11:57:03.030Z,52
2019-03-25T11:58:03.907Z,52
2019-03-25T11:59:03.870Z,52
2019-03-25T12:00:03.863Z,53
2019-03-25T12:01:03.124Z,53
2019-03-25T12:02:03.687Z,53
2019-03-25T12:03:03.710Z,54
2019-03-25T12:04:03.595Z,55
2019-03-25T12:05:03.631Z,55
2019-03-25T12:06:03.891Z,55
2019-03-25T12:07:03.435Z,55
2019-03-25T12:08:03.738Z,55
2019-03-25T12:09:03.330Z,55
2019-03-25T12:10:03.490Z,55
2019-03-25T12:11:03.453Z,54
2019-03-25T12:12:04.043Z,54
2019-03-25T12:13:03.426Z,54
2019-03-25T12:14:03.447Z,54
2019-03-25T12:15:03.530Z,54
2019-03-25T12:16:03.561Z,53
2019-03-25T12:17:03.092Z,53
2019-03-25T12:18:02.901Z,53
2019-03-25T12:19:03.195Z,53
2019-03-25T12:20:03.145Z,53
2019-03-25T12:21:03.250Z,53
2019-03-25T12:22:02.976Z,53
2019-03-25T12:23:03.274Z,52
2019-03-25T12:24:02.963Z,52
2019-03-25T12:25:03.341Z,52
2019-03-25T12:26:02.996Z,52
2019-03-25T12:27:03.468Z,52
2019-03-25T12:28:02.899Z,52
2019-03-25T12:29:03.427Z,52
2019-03-25T12:30:03.093Z,52
2019-03-25T12:31:03.737Z,52
2019-03-25T12:32:02.892Z,51
2019-03-25T12:33:04.687Z,52
2019-03-25T12:34:03.141Z,52
2019-03-25T12:35:03.162Z,52
2019-03-25T12:36:03.030Z,52
2019-03-25T12:37:02.928Z,52
2019-03-25T12:38:03.151Z,52
2019-03-25T12:39:02.856Z,52
2019-03-25T12:40:03.388Z,58
2019-03-25T12:41:03.059Z,59
2019-03-25T12:42:03.187Z,61
2019-03-25T12:43:03.284Z,62
2019-03-25T12:44:03.348Z,62
2019-03-25T12:45:03.410Z,62
2019-03-25T12:46:03.107Z,63
2019-03-25T12:47:03.386Z,64
2019-03-25T12:48:03.205Z,64
2019-03-25T12:49:03.255Z,64
2019-03-25T12:50:03.300Z,64
2019-03-25T12:51:03.002Z,66
2019-03-25T12:52:03.072Z,67
2019-03-25T12:53:12.939Z,67
2019-03-25T12:54:03.109Z,67
2019-03-25T12:55:03.384Z,67
2019-03-25T12:56:03.183Z,67
2019-03-25T12:57:03.339Z,67
2019-03-25T12:58:03.117Z,67
2019-03-25T12:59:03.686Z,67
2019-03-25T13:00:03.033Z,67
2019-03-25T13:01:03.111Z,67
2019-03-25T13:02:03.632Z,67
2019-03-25T13:03:03.715Z,68
2019-03-25T13:04:03.997Z,68
2019-03-25T13:05:03.736Z,68
2019-03-25T13:06:02.999Z,68
2019-03-25T13:07:02.834Z,68
2019-03-25T13:08:02.809Z,68
2019-03-25T13:09:03.802Z,68
2019-03-25T13:10:02.918Z,68
2019-03-25T13:11:03.074Z,68
2019-03-25T13:12:03.138Z,68
2019-03-25T13:13:03.572Z,68
2019-03-25T13:14:02.954Z,67
2019-03-25T13:15:03.854Z,67
2019-03-25T13:16:03.642Z,68
2019-03-25T13:17:03.292Z,68
2019-03-25T13:18:03.748Z,68
2019-03-25T13:19:03.716Z,68
2019-03-25T13:20:03.735Z,68
2019-03-25T13:21:02.970Z,68
2019-03-25T13:22:02.973Z,69
2019-03-25T13:23:03.099Z,69
2019-03-25T13:24:03.941Z,69
2019-03-25T13:25:03.973Z,69
2019-03-25T13:26:02.854Z,69
2019-03-25T13:27:03.879Z,69
2019-03-25T13:28:03.828Z,70
2019-03-25T13:29:03.768Z,70
2019-03-25T13:30:03.120Z,70
2019-03-25T13:31:03.125Z,70
2019-03-25T13:32:03.105Z,70
2019-03-25T13:33:03.605Z,71
2019-03-25T13:34:02.940Z,71
2019-03-25T13:35:03.738Z,71
2019-03-25T13:36:03.991Z,71
2019-03-25T13:37:03.125Z,71
2019-03-25T13:38:03.180Z,71
2019-03-25T13:39:03.331Z,71
2019-03-25T13:40:04.015Z,71
2019-03-25T13:41:03.124Z,71
2019-03-25T13:42:03.054Z,71
2019-03-25T13:43:03.141Z,71
2019-03-25T13:44:03.011Z,71
2019-03-25T13:45:03.185Z,71
2019-03-25T13:46:06.125Z,71
2019-03-25T13:47:03.514Z,71
2019-03-25T13:48:03.008Z,71
2019-03-25T13:49:03.218Z,71
2019-03-25T13:50:03.226Z,71
2019-03-25T13:51:02.903Z,71
2019-03-25T13:52:03.094Z,71
2019-03-25T13:53:03.866Z,71
2019-03-25T13:54:02.993Z,71
2019-03-25T13:55:04.072Z,71
2019-03-25T13:56:02.949Z,72
2019-03-25T13:57:03.838Z,72
2019-03-25T13:58:02.963Z,71
2019-03-25T13:59:03.672Z,71
2019-03-25T14:00:04.302Z,71
2019-03-25T14:01:03.832Z,71
2019-03-25T14:02:03.855Z,71
2019-03-25T14:03:02.888Z,71
2019-03-25T14:04:03.848Z,71
2019-03-25T14:05:03.957Z,71
2019-03-25T14:06:03.765Z,70
2019-03-25T14:07:04.213Z,70
2019-03-25T14:08:03.570Z,70
2019-03-25T14:09:03.250Z,70
2019-03-25T14:10:03.906Z,70
2019-03-25T14:11:03.911Z,70
2019-03-25T14:12:03.759Z,70
2019-03-25T14:13:03.097Z,69
2019-03-25T14:14:03.675Z,69
2019-03-25T14:15:02.996Z,69